sensor_id;sensor_type;location;lat;lon;timestamp;P1;durP1;ratioP1;P2;durP2;ratioP2
10059;SDS011;5069;49.306;8.636;2022-10-13T00:01:51;16.07;;;9.30;;
10059;SDS011;5069;49.306;8.636;2022-10-13T00:04:52;13.53;;;9.13;;
10059;SDS011;5069;49.306;8.636;2022-10-13T00:07:54;15.10;;;9.50;;
10059;SDS011;5069;49.306;8.636;2022-10-13T00:10:56;12.77;;;8.43;;
10059;SDS011;5069;49.306;8.636;2022-10-13T00:13:58;12.17;;;8.93;;
10059;SDS011;5069;49.306;8.636;2022-10-13T00:17:02;13.53;;;9.73;;
10059;SDS011;5069;49.306;8.636;2022-10-13T00:20:06;15.90;;;9.60;;
10059;SDS011;5069;49.306;8.636;2022-10-13T00:23:09;12.77;;;9.43;;
10059;SDS011;5069;49.306;8.636;2022-10-13T00:26:11;16.60;;;9.97;;
10059;SDS011;5069;49.306;8.636;2022-10-13T00:29:14;12.50;;;9.20;;
10059;SDS011;5069;49.306;8.636;2022-10-13T00:32:15;22.53;;;10.03;;
10059;SDS011;5069;49.306;8.636;2022-10-13T00:35:17;20.73;;;11.97;;
10059;SDS011;5069;49.306;8.636;2022-10-13T00:38:20;19.60;;;11.37;;
10059;SDS011;5069;49.306;8.636;2022-10-13T00:41:22;14.57;;;9.77;;
10059;SDS011;5069;49.306;8.636;2022-10-13T00:48:01;19.03;;;11.60;;
10059;SDS011;5069;49.306;8.636;2022-10-13T00:51:02;20.50;;;12.43;;
10059;SDS011;5069;49.306;8.636;2022-10-13T00:54:05;30.47;;;14.30;;
10059;SDS011;5069;49.306;8.636;2022-10-13T00:57:10;20.13;;;13.00;;
10059;SDS011;5069;49.306;8.636;2022-10-13T01:00:12;21.80;;;12.93;;
10059;SDS011;5069;49.306;8.636;2022-10-13T01:03:14;18.30;;;13.60;;
10059;SDS011;5069;49.306;8.636;2022-10-13T01:06:17;21.83;;;13.73;;
10059;SDS011;5069;49.306;8.636;2022-10-13T01:09:24;21.57;;;14.53;;
10059;SDS011;5069;49.306;8.636;2022-10-13T01:22:14;26.93;;;16.77;;
10059;SDS011;5069;49.306;8.636;2022-10-13T01:26:13;21.13;;;14.80;;
10059;SDS011;5069;49.306;8.636;2022-10-13T01:33:03;19.97;;;13.67;;
10059;SDS011;5069;49.306;8.636;2022-10-13T01:39:43;22.00;;;15.00;;
10059;SDS011;5069;49.306;8.636;2022-10-13T01:46:12;20.37;;;13.27;;
10059;SDS011;5069;49.306;8.636;2022-10-13T01:49:21;21.37;;;13.30;;
10059;SDS011;5069;49.306;8.636;2022-10-13T01:52:30;21.13;;;12.47;;
10059;SDS011;5069;49.306;8.636;2022-10-13T01:55:35;16.77;;;12.03;;
10059;SDS011;5069;49.306;8.636;2022-10-13T01:58:36;18.87;;;11.97;;
10059;SDS011;5069;49.306;8.636;2022-10-13T02:01:53;19.73;;;12.63;;
10059;SDS011;5069;49.306;8.636;2022-10-13T02:08:24;21.30;;;12.07;;
10059;SDS011;5069;49.306;8.636;2022-10-13T02:11:32;18.03;;;11.83;;
10059;SDS011;5069;49.306;8.636;2022-10-13T02:14:35;26.67;;;14.03;;
10059;SDS011;5069;49.306;8.636;2022-10-13T02:17:40;23.47;;;13.13;;
10059;SDS011;5069;49.306;8.636;2022-10-13T02:20:42;19.03;;;11.80;;
10059;SDS011;5069;49.306;8.636;2022-10-13T02:23:45;21.03;;;11.33;;
10059;SDS011;5069;49.306;8.636;2022-10-13T02:26:47;15.13;;;10.67;;
10059;SDS011;5069;49.306;8.636;2022-10-13T02:29:53;18.73;;;11.53;;
10059;SDS011;5069;49.306;8.636;2022-10-13T02:33:01;17.07;;;10.90;;
10059;SDS011;5069;49.306;8.636;2022-10-13T02:36:03;16.33;;;10.17;;
10059;SDS011;5069;49.306;8.636;2022-10-13T02:39:09;16.53;;;11.27;;
10059;SDS011;5069;49.306;8.636;2022-10-13T02:42:11;16.70;;;10.53;;
10059;SDS011;5069;49.306;8.636;2022-10-13T02:45:12;20.73;;;13.03;;
10059;SDS011;5069;49.306;8.636;2022-10-13T02:48:14;20.83;;;10.93;;
10059;SDS011;5069;49.306;8.636;2022-10-13T02:51:15;18.40;;;10.73;;
10059;SDS011;5069;49.306;8.636;2022-10-13T02:54:16;17.13;;;11.23;;
10059;SDS011;5069;49.306;8.636;2022-10-13T02:57:18;20.10;;;12.57;;
10059;SDS011;5069;49.306;8.636;2022-10-13T03:00:21;27.23;;;13.33;;
10059;SDS011;5069;49.306;8.636;2022-10-13T03:03:23;23.60;;;13.30;;
10059;SDS011;5069;49.306;8.636;2022-10-13T03:06:26;28.77;;;14.03;;
10059;SDS011;5069;49.306;8.636;2022-10-13T03:09:28;24.47;;;13.77;;
10059;SDS011;5069;49.306;8.636;2022-10-13T03:12:29;21.90;;;11.93;;
10059;SDS011;5069;49.306;8.636;2022-10-13T03:15:31;20.13;;;12.33;;
10059;SDS011;5069;49.306;8.636;2022-10-13T03:18:35;24.60;;;12.53;;
10059;SDS011;5069;49.306;8.636;2022-10-13T03:21:37;23.77;;;12.80;;
10059;SDS011;5069;49.306;8.636;2022-10-13T03:24:40;23.03;;;12.90;;
10059;SDS011;5069;49.306;8.636;2022-10-13T03:27:41;27.03;;;13.17;;
10059;SDS011;5069;49.306;8.636;2022-10-13T03:30:43;19.90;;;11.57;;
10059;SDS011;5069;49.306;8.636;2022-10-13T03:33:44;27.60;;;13.97;;
10059;SDS011;5069;49.306;8.636;2022-10-13T03:36:46;26.27;;;14.07;;
10059;SDS011;5069;49.306;8.636;2022-10-13T03:39:48;22.70;;;13.67;;
10059;SDS011;5069;49.306;8.636;2022-10-13T03:42:49;25.93;;;14.00;;
10059;SDS011;5069;49.306;8.636;2022-10-13T03:45:57;23.80;;;14.03;;
10059;SDS011;5069;49.306;8.636;2022-10-13T03:48:59;24.33;;;13.87;;
10059;SDS011;5069;49.306;8.636;2022-10-13T03:52:03;27.87;;;14.30;;
10059;SDS011;5069;49.306;8.636;2022-10-13T03:55:05;23.70;;;14.90;;
10059;SDS011;5069;49.306;8.636;2022-10-13T03:58:06;23.37;;;13.10;;
10059;SDS011;5069;49.306;8.636;2022-10-13T04:01:09;29.80;;;13.97;;
10059;SDS011;5069;49.306;8.636;2022-10-13T04:04:15;20.87;;;13.20;;
10059;SDS011;5069;49.306;8.636;2022-10-13T04:07:19;22.37;;;13.13;;
10059;SDS011;5069;49.306;8.636;2022-10-13T04:10:20;21.57;;;13.07;;
10059;SDS011;5069;49.306;8.636;2022-10-13T04:13:22;23.90;;;14.50;;
10059;SDS011;5069;49.306;8.636;2022-10-13T04:16:26;25.47;;;13.87;;
10059;SDS011;5069;49.306;8.636;2022-10-13T04:19:30;29.53;;;14.67;;
10059;SDS011;5069;49.306;8.636;2022-10-13T04:22:36;27.17;;;14.43;;
10059;SDS011;5069;49.306;8.636;2022-10-13T04:25:38;22.03;;;14.10;;
10059;SDS011;5069;49.306;8.636;2022-10-13T04:28:39;22.10;;;14.67;;
10059;SDS011;5069;49.306;8.636;2022-10-13T04:31:41;22.23;;;14.00;;
10059;SDS011;5069;49.306;8.636;2022-10-13T04:34:45;22.57;;;13.20;;
10059;SDS011;5069;49.306;8.636;2022-10-13T04:37:46;23.37;;;14.97;;
10059;SDS011;5069;49.306;8.636;2022-10-13T04:40:48;24.30;;;14.43;;
10059;SDS011;5069;49.306;8.636;2022-10-13T04:43:50;21.90;;;13.87;;
10059;SDS011;5069;49.306;8.636;2022-10-13T04:46:53;24.13;;;14.07;;
10059;SDS011;5069;49.306;8.636;2022-10-13T04:49:54;27.57;;;14.13;;
10059;SDS011;5069;49.306;8.636;2022-10-13T04:52:56;22.03;;;14.90;;
10059;SDS011;5069;49.306;8.636;2022-10-13T04:55:59;23.97;;;15.10;;
10059;SDS011;5069;49.306;8.636;2022-10-13T04:59:06;22.40;;;14.90;;
10059;SDS011;5069;49.306;8.636;2022-10-13T05:02:07;24.43;;;15.10;;
10059;SDS011;5069;49.306;8.636;2022-10-13T05:05:10;21.73;;;14.13;;
10059;SDS011;5069;49.306;8.636;2022-10-13T05:08:11;21.47;;;14.33;;
10059;SDS011;5069;49.306;8.636;2022-10-13T05:11:13;20.23;;;14.20;;
10059;SDS011;5069;49.306;8.636;2022-10-13T05:14:15;21.50;;;14.13;;
10059;SDS011;5069;49.306;8.636;2022-10-13T05:17:16;21.30;;;14.10;;
10059;SDS011;5069;49.306;8.636;2022-10-13T05:20:18;18.97;;;13.77;;
10059;SDS011;5069;49.306;8.636;2022-10-13T05:23:19;21.30;;;13.67;;
10059;SDS011;5069;49.306;8.636;2022-10-13T05:26:21;20.30;;;13.50;;
10059;SDS011;5069;49.306;8.636;2022-10-13T05:29:28;21.00;;;13.93;;
10059;SDS011;5069;49.306;8.636;2022-10-13T05:32:29;17.73;;;13.23;;
10059;SDS011;5069;49.306;8.636;2022-10-13T05:35:30;20.47;;;13.80;;
10059;SDS011;5069;49.306;8.636;2022-10-13T05:38:32;22.07;;;14.10;;
10059;SDS011;5069;49.306;8.636;2022-10-13T05:41:34;20.47;;;13.87;;
10059;SDS011;5069;49.306;8.636;2022-10-13T05:44:39;23.07;;;15.00;;
10059;SDS011;5069;49.306;8.636;2022-10-13T05:47:40;20.07;;;14.23;;
10059;SDS011;5069;49.306;8.636;2022-10-13T05:50:42;20.53;;;14.60;;
10059;SDS011;5069;49.306;8.636;2022-10-13T05:53:44;19.37;;;13.50;;
10059;SDS011;5069;49.306;8.636;2022-10-13T05:57:40;19.03;;;13.60;;
10059;SDS011;5069;49.306;8.636;2022-10-13T06:00:24;20.60;;;13.47;;
10059;SDS011;5069;49.306;8.636;2022-10-13T06:03:28;28.40;;;14.33;;
10059;SDS011;5069;49.306;8.636;2022-10-13T06:06:30;20.00;;;13.83;;
10059;SDS011;5069;49.306;8.636;2022-10-13T06:09:33;18.37;;;13.07;;
10059;SDS011;5069;49.306;8.636;2022-10-13T06:12:37;19.70;;;13.53;;
10059;SDS011;5069;49.306;8.636;2022-10-13T06:15:39;19.87;;;13.53;;
10059;SDS011;5069;49.306;8.636;2022-10-13T06:18:40;19.83;;;13.70;;
10059;SDS011;5069;49.306;8.636;2022-10-13T06:21:42;17.30;;;12.90;;
10059;SDS011;5069;49.306;8.636;2022-10-13T06:24:43;17.03;;;12.37;;
10059;SDS011;5069;49.306;8.636;2022-10-13T06:27:44;21.37;;;12.33;;
10059;SDS011;5069;49.306;8.636;2022-10-13T06:30:46;19.80;;;12.80;;
10059;SDS011;5069;49.306;8.636;2022-10-13T06:33:56;19.67;;;12.57;;
10059;SDS011;5069;49.306;8.636;2022-10-13T06:36:58;18.67;;;11.97;;
10059;SDS011;5069;49.306;8.636;2022-10-13T06:39:59;19.13;;;13.10;;
10059;SDS011;5069;49.306;8.636;2022-10-13T06:43:01;20.70;;;12.90;;
10059;SDS011;5069;49.306;8.636;2022-10-13T06:46:02;18.97;;;13.03;;
10059;SDS011;5069;49.306;8.636;2022-10-13T06:49:04;18.70;;;12.33;;
10059;SDS011;5069;49.306;8.636;2022-10-13T06:52:06;21.27;;;13.07;;
10059;SDS011;5069;49.306;8.636;2022-10-13T06:55:07;17.93;;;12.70;;
10059;SDS011;5069;49.306;8.636;2022-10-13T06:58:09;20.37;;;13.40;;
10059;SDS011;5069;49.306;8.636;2022-10-13T07:01:12;21.20;;;14.10;;
10059;SDS011;5069;49.306;8.636;2022-10-13T07:04:13;22.70;;;14.83;;
10059;SDS011;5069;49.306;8.636;2022-10-13T07:07:15;19.10;;;13.60;;
10059;SDS011;5069;49.306;8.636;2022-10-13T07:10:18;19.17;;;12.80;;
10059;SDS011;5069;49.306;8.636;2022-10-13T07:13:20;19.70;;;13.10;;
10059;SDS011;5069;49.306;8.636;2022-10-13T07:16:27;21.57;;;13.47;;
10059;SDS011;5069;49.306;8.636;2022-10-13T07:19:28;20.80;;;13.70;;
10059;SDS011;5069;49.306;8.636;2022-10-13T07:22:30;19.90;;;13.73;;
10059;SDS011;5069;49.306;8.636;2022-10-13T07:25:31;18.77;;;13.63;;
10059;SDS011;5069;49.306;8.636;2022-10-13T07:28:33;23.37;;;13.87;;
10059;SDS011;5069;49.306;8.636;2022-10-13T07:31:34;21.33;;;13.20;;
10059;SDS011;5069;49.306;8.636;2022-10-13T07:34:36;25.07;;;14.83;;
10059;SDS011;5069;49.306;8.636;2022-10-13T07:37:38;20.33;;;14.57;;
10059;SDS011;5069;49.306;8.636;2022-10-13T07:40:39;24.00;;;14.00;;
10059;SDS011;5069;49.306;8.636;2022-10-13T07:43:42;21.37;;;13.87;;
10059;SDS011;5069;49.306;8.636;2022-10-13T07:46:43;23.83;;;14.90;;
10059;SDS011;5069;49.306;8.636;2022-10-13T07:49:45;23.30;;;13.87;;
10059;SDS011;5069;49.306;8.636;2022-10-13T07:52:46;22.27;;;13.90;;
10059;SDS011;5069;49.306;8.636;2022-10-13T07:55:48;21.50;;;13.33;;
10059;SDS011;5069;49.306;8.636;2022-10-13T07:58:49;19.57;;;13.87;;
10059;SDS011;5069;49.306;8.636;2022-10-13T08:01:51;22.53;;;13.57;;
10059;SDS011;5069;49.306;8.636;2022-10-13T08:04:52;21.50;;;13.40;;
10059;SDS011;5069;49.306;8.636;2022-10-13T08:07:54;22.77;;;13.73;;
10059;SDS011;5069;49.306;8.636;2022-10-13T08:11:02;19.13;;;13.17;;
10059;SDS011;5069;49.306;8.636;2022-10-13T08:14:09;19.47;;;13.13;;
10059;SDS011;5069;49.306;8.636;2022-10-13T08:17:12;19.63;;;14.63;;
10059;SDS011;5069;49.306;8.636;2022-10-13T08:20:13;21.07;;;14.30;;
10059;SDS011;5069;49.306;8.636;2022-10-13T08:23:14;21.30;;;13.40;;
10059;SDS011;5069;49.306;8.636;2022-10-13T08:26:24;20.80;;;14.60;;
10059;SDS011;5069;49.306;8.636;2022-10-13T08:29:27;20.37;;;13.80;;
10059;SDS011;5069;49.306;8.636;2022-10-13T08:32:28;21.43;;;13.90;;
10059;SDS011;5069;49.306;8.636;2022-10-13T08:35:30;22.27;;;13.87;;
10059;SDS011;5069;49.306;8.636;2022-10-13T08:38:35;17.63;;;12.83;;
10059;SDS011;5069;49.306;8.636;2022-10-13T08:41:37;19.67;;;12.60;;
10059;SDS011;5069;49.306;8.636;2022-10-13T08:44:41;16.23;;;11.90;;
10059;SDS011;5069;49.306;8.636;2022-10-13T08:48:10;17.07;;;12.40;;
10059;SDS011;5069;49.306;8.636;2022-10-13T08:51:17;16.30;;;12.23;;
10059;SDS011;5069;49.306;8.636;2022-10-13T08:54:18;15.00;;;11.93;;
10059;SDS011;5069;49.306;8.636;2022-10-13T08:57:22;16.93;;;12.90;;
10059;SDS011;5069;49.306;8.636;2022-10-13T09:00:24;15.87;;;12.33;;
10059;SDS011;5069;49.306;8.636;2022-10-13T09:03:27;15.73;;;12.27;;
10059;SDS011;5069;49.306;8.636;2022-10-13T09:06:31;17.87;;;12.77;;
10059;SDS011;5069;49.306;8.636;2022-10-13T09:09:37;21.57;;;13.70;;
10059;SDS011;5069;49.306;8.636;2022-10-13T09:12:39;18.90;;;13.00;;
10059;SDS011;5069;49.306;8.636;2022-10-13T09:15:44;23.30;;;13.30;;
10059;SDS011;5069;49.306;8.636;2022-10-13T09:18:50;16.10;;;13.03;;
10059;SDS011;5069;49.306;8.636;2022-10-13T09:21:57;16.80;;;12.23;;
10059;SDS011;5069;49.306;8.636;2022-10-13T09:25:16;16.63;;;12.30;;
10059;SDS011;5069;49.306;8.636;2022-10-13T09:28:22;20.30;;;13.40;;
10059;SDS011;5069;49.306;8.636;2022-10-13T09:31:27;18.93;;;12.83;;
10059;SDS011;5069;49.306;8.636;2022-10-13T09:34:29;18.13;;;12.87;;
10059;SDS011;5069;49.306;8.636;2022-10-13T09:37:31;16.37;;;12.23;;
10059;SDS011;5069;49.306;8.636;2022-10-13T09:40:35;16.13;;;12.30;;
10059;SDS011;5069;49.306;8.636;2022-10-13T09:46:54;17.70;;;12.60;;
10059;SDS011;5069;49.306;8.636;2022-10-13T09:50:15;16.67;;;12.33;;
10059;SDS011;5069;49.306;8.636;2022-10-13T09:53:36;21.53;;;13.37;;
10059;SDS011;5069;49.306;8.636;2022-10-13T09:56:45;18.50;;;13.10;;
10059;SDS011;5069;49.306;8.636;2022-10-13T10:00:01;16.87;;;12.90;;
10059;SDS011;5069;49.306;8.636;2022-10-13T10:03:31;20.83;;;14.20;;
10059;SDS011;5069;49.306;8.636;2022-10-13T10:06:34;18.77;;;13.70;;
10059;SDS011;5069;49.306;8.636;2022-10-13T10:09:39;20.37;;;13.27;;
10059;SDS011;5069;49.306;8.636;2022-10-13T10:12:46;24.17;;;13.80;;
10059;SDS011;5069;49.306;8.636;2022-10-13T10:15:51;20.17;;;14.63;;
10059;SDS011;5069;49.306;8.636;2022-10-13T10:18:59;16.73;;;12.87;;
10059;SDS011;5069;49.306;8.636;2022-10-13T10:22:12;19.70;;;13.87;;
10059;SDS011;5069;49.306;8.636;2022-10-13T10:25:43;22.70;;;14.07;;
10059;SDS011;5069;49.306;8.636;2022-10-13T10:28:51;16.63;;;13.50;;
10059;SDS011;5069;49.306;8.636;2022-10-13T10:32:03;20.50;;;14.47;;
10059;SDS011;5069;49.306;8.636;2022-10-13T10:35:19;18.73;;;14.43;;
10059;SDS011;5069;49.306;8.636;2022-10-13T10:41:48;17.90;;;13.57;;
10059;SDS011;5069;49.306;8.636;2022-10-13T10:44:55;17.73;;;14.07;;
10059;SDS011;5069;49.306;8.636;2022-10-13T10:48:02;22.47;;;14.97;;
10059;SDS011;5069;49.306;8.636;2022-10-13T10:51:08;20.37;;;13.93;;
10059;SDS011;5069;49.306;8.636;2022-10-13T10:58:03;20.07;;;14.33;;
10059;SDS011;5069;49.306;8.636;2022-10-13T11:01:05;17.07;;;13.80;;
10059;SDS011;5069;49.306;8.636;2022-10-13T11:10:44;19.17;;;13.53;;
10059;SDS011;5069;49.306;8.636;2022-10-13T11:13:58;21.80;;;15.03;;
10059;SDS011;5069;49.306;8.636;2022-10-13T11:17:08;22.10;;;15.37;;
10059;SDS011;5069;49.306;8.636;2022-10-13T11:26:31;22.73;;;13.87;;
10059;SDS011;5069;49.306;8.636;2022-10-13T11:32:44;22.50;;;14.60;;
10059;SDS011;5069;49.306;8.636;2022-10-13T11:35:55;21.07;;;14.47;;
10059;SDS011;5069;49.306;8.636;2022-10-13T11:42:35;22.37;;;14.53;;
10059;SDS011;5069;49.306;8.636;2022-10-13T11:46:18;25.37;;;14.80;;
10059;SDS011;5069;49.306;8.636;2022-10-13T11:49:50;20.03;;;14.23;;
10059;SDS011;5069;49.306;8.636;2022-10-13T11:56:21;23.50;;;13.17;;
10059;SDS011;5069;49.306;8.636;2022-10-13T11:59:43;17.97;;;12.53;;
10059;SDS011;5069;49.306;8.636;2022-10-13T12:02:47;18.57;;;12.77;;
10059;SDS011;5069;49.306;8.636;2022-10-13T12:05:54;17.00;;;12.10;;
10059;SDS011;5069;49.306;8.636;2022-10-13T12:09:00;16.63;;;12.40;;
10059;SDS011;5069;49.306;8.636;2022-10-13T12:12:14;20.67;;;11.77;;
10059;SDS011;5069;49.306;8.636;2022-10-13T12:15:54;16.33;;;12.10;;
10059;SDS011;5069;49.306;8.636;2022-10-13T12:18:46;19.30;;;11.80;;
10059;SDS011;5069;49.306;8.636;2022-10-13T12:21:49;15.43;;;11.40;;
10059;SDS011;5069;49.306;8.636;2022-10-13T12:25:02;14.87;;;10.60;;
10059;SDS011;5069;49.306;8.636;2022-10-13T12:28:13;17.50;;;11.03;;
10059;SDS011;5069;49.306;8.636;2022-10-13T12:31:21;14.27;;;10.23;;
10059;SDS011;5069;49.306;8.636;2022-10-13T12:34:49;16.77;;;10.63;;
10059;SDS011;5069;49.306;8.636;2022-10-13T12:37:51;14.53;;;10.50;;
10059;SDS011;5069;49.306;8.636;2022-10-13T12:40:54;16.23;;;10.80;;
10059;SDS011;5069;49.306;8.636;2022-10-13T12:43:58;20.17;;;11.17;;
10059;SDS011;5069;49.306;8.636;2022-10-13T12:47:34;18.90;;;11.47;;
10059;SDS011;5069;49.306;8.636;2022-10-13T12:50:39;16.90;;;11.10;;
10059;SDS011;5069;49.306;8.636;2022-10-13T12:53:41;15.37;;;10.93;;
10059;SDS011;5069;49.306;8.636;2022-10-13T12:56:43;19.13;;;11.73;;
10059;SDS011;5069;49.306;8.636;2022-10-13T12:59:45;15.37;;;10.50;;
10059;SDS011;5069;49.306;8.636;2022-10-13T13:03:00;18.63;;;10.60;;
10059;SDS011;5069;49.306;8.636;2022-10-13T13:12:27;16.97;;;10.30;;
10059;SDS011;5069;49.306;8.636;2022-10-13T13:15:37;19.07;;;11.00;;
10059;SDS011;5069;49.306;8.636;2022-10-13T13:18:40;16.90;;;10.57;;
10059;SDS011;5069;49.306;8.636;2022-10-13T13:21:43;16.57;;;10.57;;
10059;SDS011;5069;49.306;8.636;2022-10-13T13:24:44;14.40;;;10.20;;
10059;SDS011;5069;49.306;8.636;2022-10-13T13:27:46;16.80;;;11.40;;
10059;SDS011;5069;49.306;8.636;2022-10-13T13:30:49;20.70;;;10.77;;
10059;SDS011;5069;49.306;8.636;2022-10-13T13:33:51;18.80;;;10.53;;
10059;SDS011;5069;49.306;8.636;2022-10-13T13:36:53;17.33;;;10.87;;
10059;SDS011;5069;49.306;8.636;2022-10-13T13:39:54;19.97;;;11.30;;
10059;SDS011;5069;49.306;8.636;2022-10-13T13:42:55;15.80;;;10.93;;
10059;SDS011;5069;49.306;8.636;2022-10-13T13:46:04;20.67;;;11.07;;
10059;SDS011;5069;49.306;8.636;2022-10-13T13:49:07;17.90;;;11.03;;
10059;SDS011;5069;49.306;8.636;2022-10-13T13:52:11;13.90;;;9.87;;
10059;SDS011;5069;49.306;8.636;2022-10-13T13:55:12;16.87;;;10.53;;
10059;SDS011;5069;49.306;8.636;2022-10-13T13:58:14;22.07;;;11.40;;
10059;SDS011;5069;49.306;8.636;2022-10-13T14:01:15;16.20;;;9.83;;
10059;SDS011;5069;49.306;8.636;2022-10-13T14:04:17;15.20;;;10.37;;
10059;SDS011;5069;49.306;8.636;2022-10-13T14:07:18;16.77;;;11.13;;
10059;SDS011;5069;49.306;8.636;2022-10-13T14:10:21;19.77;;;10.93;;
10059;SDS011;5069;49.306;8.636;2022-10-13T14:13:22;21.63;;;10.73;;
10059;SDS011;5069;49.306;8.636;2022-10-13T14:16:24;15.10;;;10.00;;
10059;SDS011;5069;49.306;8.636;2022-10-13T14:19:26;15.63;;;9.67;;
10059;SDS011;5069;49.306;8.636;2022-10-13T14:22:27;18.63;;;10.20;;
10059;SDS011;5069;49.306;8.636;2022-10-13T14:25:29;16.67;;;8.80;;
10059;SDS011;5069;49.306;8.636;2022-10-13T14:28:30;17.87;;;9.70;;
10059;SDS011;5069;49.306;8.636;2022-10-13T14:31:32;18.37;;;10.00;;
10059;SDS011;5069;49.306;8.636;2022-10-13T14:34:33;14.27;;;10.03;;
10059;SDS011;5069;49.306;8.636;2022-10-13T14:37:35;12.23;;;8.77;;
10059;SDS011;5069;49.306;8.636;2022-10-13T14:40:40;20.27;;;9.33;;
10059;SDS011;5069;49.306;8.636;2022-10-13T14:43:42;16.00;;;8.30;;
10059;SDS011;5069;49.306;8.636;2022-10-13T14:46:44;10.47;;;8.33;;
10059;SDS011;5069;49.306;8.636;2022-10-13T14:49:46;16.00;;;8.57;;
10059;SDS011;5069;49.306;8.636;2022-10-13T14:52:47;23.97;;;10.10;;
10059;SDS011;5069;49.306;8.636;2022-10-13T14:55:49;16.27;;;9.50;;
10059;SDS011;5069;49.306;8.636;2022-10-13T14:58:51;18.70;;;9.80;;
10059;SDS011;5069;49.306;8.636;2022-10-13T15:02:11;13.50;;;9.20;;
10059;SDS011;5069;49.306;8.636;2022-10-13T15:05:24;20.47;;;9.57;;
10059;SDS011;5069;49.306;8.636;2022-10-13T15:08:25;12.87;;;8.70;;
10059;SDS011;5069;49.306;8.636;2022-10-13T15:11:27;17.93;;;9.53;;
10059;SDS011;5069;49.306;8.636;2022-10-13T15:14:28;17.03;;;9.13;;
10059;SDS011;5069;49.306;8.636;2022-10-13T15:17:33;16.77;;;9.30;;
10059;SDS011;5069;49.306;8.636;2022-10-13T15:20:36;16.40;;;9.50;;
10059;SDS011;5069;49.306;8.636;2022-10-13T15:23:39;19.70;;;10.10;;
10059;SDS011;5069;49.306;8.636;2022-10-13T15:26:40;16.73;;;9.40;;
10059;SDS011;5069;49.306;8.636;2022-10-13T15:29:41;14.87;;;9.43;;
10059;SDS011;5069;49.306;8.636;2022-10-13T15:32:43;19.80;;;10.20;;
10059;SDS011;5069;49.306;8.636;2022-10-13T15:35:48;17.57;;;9.43;;
10059;SDS011;5069;49.306;8.636;2022-10-13T15:38:51;16.53;;;9.57;;
10059;SDS011;5069;49.306;8.636;2022-10-13T15:41:52;15.70;;;9.27;;
10059;SDS011;5069;49.306;8.636;2022-10-13T15:44:54;19.10;;;9.53;;
10059;SDS011;5069;49.306;8.636;2022-10-13T15:48:12;17.20;;;9.10;;
10059;SDS011;5069;49.306;8.636;2022-10-13T15:51:14;17.13;;;9.03;;
10059;SDS011;5069;49.306;8.636;2022-10-13T15:54:17;18.23;;;8.73;;
10059;SDS011;5069;49.306;8.636;2022-10-13T15:57:21;11.17;;;8.93;;
10059;SDS011;5069;49.306;8.636;2022-10-13T16:00:22;15.63;;;9.57;;
10059;SDS011;5069;49.306;8.636;2022-10-13T16:03:23;15.50;;;9.73;;
10059;SDS011;5069;49.306;8.636;2022-10-13T16:06:29;19.77;;;9.80;;
10059;SDS011;5069;49.306;8.636;2022-10-13T16:09:31;17.80;;;9.77;;
10059;SDS011;5069;49.306;8.636;2022-10-13T16:12:32;17.20;;;9.70;;
10059;SDS011;5069;49.306;8.636;2022-10-13T16:15:34;17.47;;;9.47;;
10059;SDS011;5069;49.306;8.636;2022-10-13T16:18:36;16.10;;;9.03;;
10059;SDS011;5069;49.306;8.636;2022-10-13T16:21:38;15.17;;;8.87;;
10059;SDS011;5069;49.306;8.636;2022-10-13T16:24:41;13.70;;;8.87;;
10059;SDS011;5069;49.306;8.636;2022-10-13T16:27:43;15.60;;;9.13;;
10059;SDS011;5069;49.306;8.636;2022-10-13T16:30:45;15.27;;;9.53;;
10059;SDS011;5069;49.306;8.636;2022-10-13T16:33:46;17.40;;;9.80;;
10059;SDS011;5069;49.306;8.636;2022-10-13T16:36:48;11.57;;;9.33;;
10059;SDS011;5069;49.306;8.636;2022-10-13T16:39:49;11.97;;;9.60;;
10059;SDS011;5069;49.306;8.636;2022-10-13T16:42:52;15.27;;;9.50;;
10059;SDS011;5069;49.306;8.636;2022-10-13T16:45:54;14.17;;;10.03;;
10059;SDS011;5069;49.306;8.636;2022-10-13T16:49:00;18.87;;;10.70;;
10059;SDS011;5069;49.306;8.636;2022-10-13T16:52:02;14.63;;;10.27;;
10059;SDS011;5069;49.306;8.636;2022-10-13T16:55:04;21.77;;;11.00;;
10059;SDS011;5069;49.306;8.636;2022-10-13T16:58:05;16.07;;;10.43;;
10059;SDS011;5069;49.306;8.636;2022-10-13T17:01:08;18.63;;;10.43;;
10059;SDS011;5069;49.306;8.636;2022-10-13T17:04:09;16.43;;;10.67;;
10059;SDS011;5069;49.306;8.636;2022-10-13T17:07:11;13.83;;;10.57;;
10059;SDS011;5069;49.306;8.636;2022-10-13T17:10:13;15.43;;;9.87;;
10059;SDS011;5069;49.306;8.636;2022-10-13T17:13:14;14.67;;;9.87;;
10059;SDS011;5069;49.306;8.636;2022-10-13T17:16:16;16.33;;;10.67;;
10059;SDS011;5069;49.306;8.636;2022-10-13T17:19:18;16.17;;;9.87;;
10059;SDS011;5069;49.306;8.636;2022-10-13T17:22:20;16.47;;;10.33;;
10059;SDS011;5069;49.306;8.636;2022-10-13T17:25:21;15.97;;;10.10;;
10059;SDS011;5069;49.306;8.636;2022-10-13T17:28:23;15.33;;;9.47;;
10059;SDS011;5069;49.306;8.636;2022-10-13T17:31:24;16.53;;;10.63;;
10059;SDS011;5069;49.306;8.636;2022-10-13T17:34:26;17.33;;;11.40;;
10059;SDS011;5069;49.306;8.636;2022-10-13T17:37:27;14.67;;;10.33;;
10059;SDS011;5069;49.306;8.636;2022-10-13T17:40:31;14.90;;;9.30;;
10059;SDS011;5069;49.306;8.636;2022-10-13T17:43:34;16.40;;;9.33;;
10059;SDS011;5069;49.306;8.636;2022-10-13T17:46:37;15.00;;;9.50;;
10059;SDS011;5069;49.306;8.636;2022-10-13T17:49:40;15.90;;;10.13;;
10059;SDS011;5069;49.306;8.636;2022-10-13T17:52:44;15.37;;;9.97;;
10059;SDS011;5069;49.306;8.636;2022-10-13T17:55:45;12.83;;;9.17;;
10059;SDS011;5069;49.306;8.636;2022-10-13T17:58:48;14.90;;;9.00;;
10059;SDS011;5069;49.306;8.636;2022-10-13T18:01:51;16.67;;;12.23;;
10059;SDS011;5069;49.306;8.636;2022-10-13T18:04:52;18.37;;;11.37;;
10059;SDS011;5069;49.306;8.636;2022-10-13T18:07:57;21.10;;;11.40;;
10059;SDS011;5069;49.306;8.636;2022-10-13T18:11:05;11.60;;;9.53;;
10059;SDS011;5069;49.306;8.636;2022-10-13T18:14:09;16.33;;;10.67;;
10059;SDS011;5069;49.306;8.636;2022-10-13T18:17:13;17.40;;;11.93;;
10059;SDS011;5069;49.306;8.636;2022-10-13T18:20:15;18.53;;;12.10;;
10059;SDS011;5069;49.306;8.636;2022-10-13T18:23:16;11.77;;;10.30;;
10059;SDS011;5069;49.306;8.636;2022-10-13T18:26:18;15.37;;;9.53;;
10059;SDS011;5069;49.306;8.636;2022-10-13T18:29:20;13.73;;;9.57;;
10059;SDS011;5069;49.306;8.636;2022-10-13T18:32:21;18.07;;;9.90;;
10059;SDS011;5069;49.306;8.636;2022-10-13T18:35:23;11.33;;;8.30;;
10059;SDS011;5069;49.306;8.636;2022-10-13T18:38:30;14.73;;;10.40;;
10059;SDS011;5069;49.306;8.636;2022-10-13T18:41:32;13.27;;;10.13;;
10059;SDS011;5069;49.306;8.636;2022-10-13T18:44:35;14.03;;;10.07;;
10059;SDS011;5069;49.306;8.636;2022-10-13T18:47:36;18.07;;;9.90;;
10059;SDS011;5069;49.306;8.636;2022-10-13T18:50:39;15.00;;;9.90;;
10059;SDS011;5069;49.306;8.636;2022-10-13T18:53:41;13.87;;;10.07;;
10059;SDS011;5069;49.306;8.636;2022-10-13T18:56:44;20.07;;;10.83;;
10059;SDS011;5069;49.306;8.636;2022-10-13T18:59:46;15.67;;;10.63;;
10059;SDS011;5069;49.306;8.636;2022-10-13T19:02:47;16.97;;;10.57;;
10059;SDS011;5069;49.306;8.636;2022-10-13T19:05:49;17.73;;;10.23;;
10059;SDS011;5069;49.306;8.636;2022-10-13T19:08:52;16.07;;;11.23;;
10059;SDS011;5069;49.306;8.636;2022-10-13T19:11:56;14.50;;;10.97;;
10059;SDS011;5069;49.306;8.636;2022-10-13T19:14:57;14.13;;;10.47;;
10059;SDS011;5069;49.306;8.636;2022-10-13T19:17:59;14.90;;;10.40;;
10059;SDS011;5069;49.306;8.636;2022-10-13T19:21:00;14.20;;;11.57;;
10059;SDS011;5069;49.306;8.636;2022-10-13T19:24:02;17.77;;;11.13;;
10059;SDS011;5069;49.306;8.636;2022-10-13T19:27:04;16.27;;;11.77;;